FCN587 MTPP-SOCA
Flight info
| Callsign | FCN587 |
|---|---|
| Flight time | 3h 25m |
| Altitude | 35000 |
| Route | KENOK1S KENOK DCT DARKE UA315 PENKO/N0412F190 A511 VODIN/N0438F230 A511 BGI A555 MILUX/N0463F370 UM786 KALEP KALEP1U |
| Aircraft | A320/M-SDE3FGHIRWY/LB1 |
Departure
| Time | 2026-05-03 21:06 |
|---|---|
| Airport | Toussaint Louverture International Airport (MTPP) |
Arrival
| Time | 2026-05-04 00:31 |
|---|---|
| Airport | Cayenne – Félix Eboué Airport (SOCA) |
| Time | Latitude | Longitude | Altitude | Speed | Heading |
|---|---|---|---|---|---|
| 2026-05-03 20:42 | 18.57621 | -72.29559 | 94 ft | 0 kts | 179° |
| 2026-05-03 20:57 | 18.57638 | -72.29560 | 95 ft | 4 kts | 151° |
| 2026-05-03 20:57 | 18.57652 | -72.29579 | 94 ft | 4 kts | 96° |
| 2026-05-03 20:58 | 18.57652 | -72.29607 | 93 ft | 4 kts | 85° |
| 2026-05-03 20:58 | 18.57651 | -72.29630 | 93 ft | 4 kts | 87° |
| 2026-05-03 20:58 | 18.57650 | -72.29637 | 93 ft | 1 kts | 87° |
| 2026-05-03 21:00 | 18.57653 | -72.29615 | 93 ft | 6 kts | 79° |
| 2026-05-03 21:00 | 18.57666 | -72.29575 | 94 ft | 5 kts | 69° |
| 2026-05-03 21:01 | 18.57674 | -72.29551 | 96 ft | 2 kts | 73° |
| 2026-05-03 21:01 | 18.57680 | -72.29528 | 94 ft | 10 kts | 74° |
| 2026-05-03 21:01 | 18.57717 | -72.29466 | 95 ft | 10 kts | 27° |
| 2026-05-03 21:01 | 18.57777 | -72.29464 | 96 ft | 8 kts | 355° |
| 2026-05-03 21:02 | 18.57841 | -72.29468 | 95 ft | 17 kts | 359° |
| 2026-05-03 21:02 | 18.57985 | -72.29519 | 94 ft | 24 kts | 289° |
| 2026-05-03 21:02 | 18.57981 | -72.29701 | 91 ft | 26 kts | 266° |
| 2026-05-03 21:02 | 18.57973 | -72.29891 | 94 ft | 26 kts | 266° |
| 2026-05-03 21:03 | 18.57962 | -72.30086 | 87 ft | 24 kts | 266° |
| 2026-05-03 21:03 | 18.57953 | -72.30265 | 85 ft | 25 kts | 267° |
| 2026-05-03 21:03 | 18.57944 | -72.30454 | 87 ft | 27 kts | 267° |
| 2026-05-03 21:03 | 18.57945 | -72.30639 | 67 ft | 23 kts | 274° |
| 2026-05-03 21:04 | 18.57916 | -72.30664 | 70 ft | 3 kts | 84° |
| 2026-05-03 21:04 | 18.57924 | -72.30647 | 71 ft | 2 kts | 65° |
| 2026-05-03 21:04 | 18.57937 | -72.30604 | 69 ft | 6 kts | 83° |
| 2026-05-03 21:04 | 18.57939 | -72.30565 | 79 ft | 9 kts | 89° |
| 2026-05-03 21:05 | 18.57954 | -72.30254 | 86 ft | 77 kts | 87° |
| 2026-05-03 21:05 | 18.57993 | -72.29478 | 94 ft | 132 kts | 87° |
| 2026-05-03 21:05 | 18.58047 | -72.28358 | 173 ft | 169 kts | 87° |
| 2026-05-03 21:05 | 18.58108 | -72.27086 | 676 ft | 176 kts | 90° |
| 2026-05-03 21:06 | 18.58169 | -72.25794 | 1347 ft | 176 kts | 88° |
| 2026-05-03 21:06 | 18.58236 | -72.24505 | 2011 ft | 179 kts | 86° |
| 2026-05-03 21:06 | 18.58500 | -72.23148 | 2377 ft | 200 kts | 75° |
| 2026-05-03 21:06 | 18.58940 | -72.21679 | 2717 ft | 223 kts | 72° |
| 2026-05-03 21:07 | 18.59459 | -72.20067 | 3131 ft | 238 kts | 72° |
| 2026-05-03 21:07 | 18.59995 | -72.18406 | 3712 ft | 245 kts | 72° |
| 2026-05-03 21:07 | 18.60541 | -72.16695 | 4429 ft | 248 kts | 72° |
| 2026-05-03 21:07 | 18.61083 | -72.14970 | 5184 ft | 249 kts | 72° |
| 2026-05-03 21:08 | 18.61623 | -72.13235 | 5925 ft | 250 kts | 72° |
| 2026-05-03 21:08 | 18.62163 | -72.11485 | 6642 ft | 253 kts | 72° |
| 2026-05-03 21:08 | 18.62621 | -72.09685 | 7313 ft | 255 kts | 83° |
| 2026-05-03 21:08 | 18.62591 | -72.07817 | 8009 ft | 257 kts | 100° |
| 2026-05-03 21:09 | 18.62082 | -72.05999 | 8678 ft | 261 kts | 109° |
| 2026-05-03 21:09 | 18.61491 | -72.04184 | 9340 ft | 264 kts | 109° |
| 2026-05-03 21:09 | 18.60897 | -72.02342 | 9992 ft | 267 kts | 109° |
| 2026-05-03 21:09 | 18.60299 | -72.00483 | 10573 ft | 270 kts | 109° |
| 2026-05-03 21:10 | 18.59654 | -71.98611 | 11127 ft | 274 kts | 116° |
| 2026-05-03 21:10 | 18.58623 | -71.96889 | 11477 ft | 288 kts | 130° |
| 2026-05-03 21:10 | 18.57290 | -71.95244 | 11608 ft | 310 kts | 131° |
| 2026-05-03 21:10 | 18.55840 | -71.93468 | 11733 ft | 331 kts | 131° |
| 2026-05-03 21:11 | 18.54289 | -71.91570 | 11856 ft | 351 kts | 130° |
| 2026-05-03 21:11 | 18.52560 | -71.89673 | 11982 ft | 369 kts | 141° |
| 2026-05-03 21:11 | 18.50320 | -71.88264 | 12131 ft | 384 kts | 158° |
| 2026-05-03 21:11 | 18.47705 | -71.87560 | 12518 ft | 392 kts | 169° |
| 2026-05-03 21:12 | 18.45012 | -71.87041 | 13004 ft | 396 kts | 170° |
| 2026-05-03 21:12 | 18.42294 | -71.86512 | 13514 ft | 399 kts | 170° |
| 2026-05-03 21:12 | 18.39548 | -71.85974 | 13970 ft | 403 kts | 170° |
| 2026-05-03 21:12 | 18.36783 | -71.85429 | 14420 ft | 405 kts | 171° |
| 2026-05-03 21:13 | 18.34010 | -71.84880 | 14878 ft | 407 kts | 171° |
| 2026-05-03 21:13 | 18.31208 | -71.84419 | 15315 ft | 408 kts | 179° |
| 2026-05-03 21:13 | 18.28445 | -71.84757 | 15746 ft | 406 kts | 199° |
| 2026-05-03 21:13 | 18.25898 | -71.86017 | 16199 ft | 405 kts | 212° |
| 2026-05-03 21:14 | 18.23347 | -71.87282 | 16593 ft | 410 kts | 200° |
| 2026-05-03 21:14 | 18.20594 | -71.88064 | 17100 ft | 410 kts | 197° |
| 2026-05-03 21:14 | 18.17830 | -71.88810 | 17540 ft | 411 kts | 197° |
| 2026-05-03 21:14 | 18.15050 | -71.89568 | 17951 ft | 413 kts | 197° |
| 2026-05-03 21:15 | 18.12262 | -71.90330 | 18373 ft | 415 kts | 196° |
| 2026-05-03 21:15 | 18.09448 | -71.91034 | 18684 ft | 418 kts | 194° |
| 2026-05-03 21:15 | 18.06596 | -71.91693 | 18966 ft | 422 kts | 194° |
| 2026-05-03 21:15 | 18.03718 | -71.92334 | 19266 ft | 424 kts | 194° |
| 2026-05-03 21:16 | 18.00819 | -71.92977 | 19552 ft | 427 kts | 194° |
| 2026-05-03 21:16 | 17.97935 | -71.93600 | 19885 ft | 429 kts | 191° |
| 2026-05-03 21:16 | 17.94910 | -71.93821 | 20166 ft | 434 kts | 179° |
| 2026-05-03 21:16 | 17.91935 | -71.93456 | 20459 ft | 438 kts | 168° |
| 2026-05-03 21:17 | 17.89012 | -71.92496 | 20752 ft | 443 kts | 159° |
| 2026-05-03 21:17 | 17.87145 | -71.91519 | 20963 ft | 446 kts | 152° |
| 2026-05-03 21:17 | 17.83604 | -71.89292 | 21365 ft | 448 kts | 151° |
| 2026-05-03 21:17 | 17.80926 | -71.87610 | 21663 ft | 450 kts | 150° |
| 2026-05-03 21:18 | 17.78228 | -71.85921 | 21949 ft | 452 kts | 150° |
| 2026-05-03 21:18 | 17.75529 | -71.84234 | 22227 ft | 453 kts | 150° |
| 2026-05-03 21:18 | 17.72812 | -71.82532 | 22498 ft | 455 kts | 150° |
| 2026-05-03 21:18 | 17.70097 | -71.80825 | 22777 ft | 456 kts | 150° |
| 2026-05-03 21:19 | 17.67367 | -71.79107 | 23054 ft | 457 kts | 149° |
| 2026-05-03 21:19 | 17.64632 | -71.77388 | 23294 ft | 460 kts | 149° |
| 2026-05-03 21:19 | 17.61891 | -71.75665 | 23544 ft | 461 kts | 149° |
| 2026-05-03 21:19 | 17.59133 | -71.73934 | 23731 ft | 463 kts | 149° |
| 2026-05-03 21:20 | 17.56359 | -71.72200 | 23929 ft | 464 kts | 149° |
| 2026-05-03 21:20 | 17.53582 | -71.70467 | 24135 ft | 466 kts | 149° |
| 2026-05-03 21:20 | 17.50799 | -71.68727 | 24316 ft | 467 kts | 149° |
| 2026-05-03 21:20 | 17.48009 | -71.66975 | 24526 ft | 468 kts | 149° |
| 2026-05-03 21:21 | 17.45246 | -71.65235 | 24719 ft | 469 kts | 149° |
| 2026-05-03 21:21 | 17.42449 | -71.63473 | 24900 ft | 471 kts | 149° |
| 2026-05-03 21:21 | 17.39635 | -71.61707 | 25085 ft | 472 kts | 149° |
| 2026-05-03 21:21 | 17.36813 | -71.59941 | 25258 ft | 474 kts | 149° |
| 2026-05-03 21:22 | 17.33979 | -71.58170 | 25462 ft | 474 kts | 149° |
| 2026-05-03 21:22 | 17.31143 | -71.56398 | 25654 ft | 476 kts | 149° |
| 2026-05-03 21:22 | 17.28297 | -71.54623 | 25840 ft | 477 kts | 149° |
| 2026-05-03 21:22 | 17.25442 | -71.52843 | 26029 ft | 478 kts | 149° |
| 2026-05-03 21:23 | 17.22580 | -71.51057 | 26204 ft | 480 kts | 149° |
| 2026-05-03 21:23 | 17.19712 | -71.49266 | 26395 ft | 481 kts | 149° |
| 2026-05-03 21:23 | 17.16839 | -71.47471 | 26590 ft | 482 kts | 149° |
| 2026-05-03 21:23 | 17.13965 | -71.45673 | 26869 ft | 480 kts | 149° |
| 2026-05-03 21:24 | 17.11103 | -71.43883 | 27148 ft | 480 kts | 149° |
| 2026-05-03 21:24 | 17.08239 | -71.42095 | 27430 ft | 479 kts | 149° |
| 2026-05-03 21:24 | 17.05416 | -71.40332 | 27713 ft | 478 kts | 149° |
| 2026-05-03 21:24 | 17.02530 | -71.38530 | 27989 ft | 478 kts | 149° |
| 2026-05-03 21:25 | 16.99719 | -71.36775 | 28252 ft | 477 kts | 149° |
| 2026-05-03 21:25 | 16.96873 | -71.35000 | 28541 ft | 477 kts | 149° |
| 2026-05-03 21:25 | 16.94024 | -71.33225 | 28829 ft | 476 kts | 149° |
| 2026-05-03 21:25 | 16.91182 | -71.31456 | 29129 ft | 475 kts | 149° |
| 2026-05-03 21:26 | 16.88347 | -71.29690 | 29428 ft | 474 kts | 149° |
| 2026-05-03 21:26 | 16.85518 | -71.27927 | 29716 ft | 474 kts | 149° |
| 2026-05-03 21:26 | 16.82681 | -71.26157 | 29944 ft | 475 kts | 149° |
| 2026-05-03 21:26 | 16.79847 | -71.24389 | 30185 ft | 475 kts | 149° |
| 2026-05-03 21:27 | 16.77009 | -71.22621 | 30420 ft | 475 kts | 149° |
| 2026-05-03 21:27 | 16.74172 | -71.20860 | 30666 ft | 474 kts | 149° |
| 2026-05-03 21:27 | 16.71332 | -71.19099 | 30876 ft | 475 kts | 149° |
| 2026-05-03 21:27 | 16.68528 | -71.17361 | 31110 ft | 475 kts | 150° |
| 2026-05-03 21:28 | 16.65688 | -71.15602 | 31314 ft | 475 kts | 150° |
| 2026-05-03 21:28 | 16.62850 | -71.13847 | 31549 ft | 475 kts | 149° |
| 2026-05-03 21:28 | 16.60009 | -71.12087 | 31800 ft | 475 kts | 150° |
| 2026-05-03 21:28 | 16.57174 | -71.10328 | 32032 ft | 474 kts | 150° |
| 2026-05-03 21:29 | 16.54341 | -71.08567 | 32278 ft | 474 kts | 150° |
| 2026-05-03 21:29 | 16.51508 | -71.06809 | 32508 ft | 474 kts | 150° |
| 2026-05-03 21:29 | 16.48674 | -71.05054 | 32722 ft | 474 kts | 150° |
| 2026-05-03 21:29 | 16.45829 | -71.03294 | 32911 ft | 475 kts | 151° |
| 2026-05-03 21:30 | 16.42983 | -71.01537 | 33093 ft | 476 kts | 151° |
| 2026-05-03 21:30 | 16.40136 | -70.99779 | 33364 ft | 475 kts | 150° |
| 2026-05-03 21:30 | 16.37335 | -70.98048 | 33608 ft | 475 kts | 151° |
| 2026-05-03 21:30 | 16.34497 | -70.96293 | 33892 ft | 473 kts | 150° |
| 2026-05-03 21:31 | 16.31668 | -70.94544 | 34121 ft | 473 kts | 150° |
| 2026-05-03 21:31 | 16.28840 | -70.92793 | 34289 ft | 474 kts | 150° |
| 2026-05-03 21:31 | 16.26007 | -70.91041 | 34475 ft | 474 kts | 151° |
| 2026-05-03 21:31 | 16.23166 | -70.89285 | 34638 ft | 475 kts | 151° |
| 2026-05-03 21:32 | 16.20325 | -70.87529 | 34816 ft | 475 kts | 150° |
| 2026-05-03 21:32 | 16.17485 | -70.85777 | 34956 ft | 476 kts | 151° |
| 2026-05-03 21:32 | 16.11764 | -70.82254 | 34992 ft | 479 kts | 150° |
| 2026-05-03 21:33 | 16.06063 | -70.78734 | 34994 ft | 480 kts | 150° |
| 2026-05-03 21:33 | 16.00305 | -70.75204 | 34989 ft | 481 kts | 154° |
| 2026-05-03 21:34 | 15.94257 | -70.72289 | 34989 ft | 479 kts | 157° |
| 2026-05-03 21:34 | 15.88190 | -70.69421 | 34988 ft | 479 kts | 157° |
| 2026-05-03 21:35 | 15.82129 | -70.66550 | 34989 ft | 479 kts | 157° |
| 2026-05-03 21:35 | 15.76062 | -70.63672 | 34991 ft | 479 kts | 156° |
| 2026-05-03 21:36 | 15.70005 | -70.60809 | 34986 ft | 479 kts | 157° |
| 2026-05-03 21:36 | 15.63979 | -70.57963 | 34985 ft | 479 kts | 157° |
| 2026-05-03 21:37 | 15.57920 | -70.55107 | 34989 ft | 478 kts | 157° |
| 2026-05-03 21:37 | 15.51852 | -70.52251 | 34982 ft | 479 kts | 157° |
| 2026-05-03 21:38 | 15.46808 | -70.49875 | 34984 ft | 479 kts | 156° |
| 2026-05-03 21:38 | 15.40743 | -70.47009 | 34977 ft | 479 kts | 157° |
| 2026-05-03 21:39 | 15.34677 | -70.44146 | 34979 ft | 480 kts | 157° |
| 2026-05-03 21:39 | 15.27610 | -70.40822 | 34986 ft | 479 kts | 157° |
| 2026-05-03 21:40 | 15.22529 | -70.38438 | 34985 ft | 479 kts | 157° |
| 2026-05-03 21:40 | 15.16498 | -70.35584 | 34979 ft | 480 kts | 154° |
| 2026-05-03 21:41 | 15.13656 | -70.33783 | 34977 ft | 481 kts | 143° |
| 2026-05-03 21:41 | 15.11176 | -70.31460 | 34976 ft | 481 kts | 132° |
| 2026-05-03 21:41 | 15.09152 | -70.28709 | 34970 ft | 482 kts | 121° |
| 2026-05-03 21:41 | 15.07650 | -70.25614 | 34967 ft | 482 kts | 110° |
| 2026-05-03 21:42 | 15.06744 | -70.22278 | 34963 ft | 481 kts | 99° |
| 2026-05-03 21:42 | 15.06163 | -70.18875 | 34963 ft | 482 kts | 99° |
| 2026-05-03 21:42 | 15.04971 | -70.12045 | 34963 ft | 483 kts | 100° |
| 2026-05-03 21:43 | 15.03752 | -70.05212 | 34975 ft | 483 kts | 100° |
| 2026-05-03 21:43 | 15.02562 | -69.98369 | 34978 ft | 484 kts | 99° |
| 2026-05-03 21:44 | 15.01444 | -69.91510 | 34965 ft | 485 kts | 99° |
| 2026-05-03 21:44 | 15.00334 | -69.84616 | 34962 ft | 486 kts | 98° |
| 2026-05-03 21:45 | 14.99206 | -69.77756 | 34963 ft | 488 kts | 99° |
| 2026-05-03 21:45 | 14.98050 | -69.70846 | 34966 ft | 488 kts | 99° |
| 2026-05-03 21:46 | 14.96885 | -69.63924 | 34966 ft | 489 kts | 99° |
| 2026-05-03 21:46 | 14.95732 | -69.56999 | 34972 ft | 489 kts | 99° |
| 2026-05-03 21:47 | 14.94578 | -69.50060 | 34978 ft | 489 kts | 99° |
| 2026-05-03 21:47 | 14.93417 | -69.43133 | 34986 ft | 489 kts | 99° |
| 2026-05-03 21:48 | 14.92256 | -69.36203 | 34991 ft | 488 kts | 98° |
| 2026-05-03 21:48 | 14.91102 | -69.29338 | 34984 ft | 488 kts | 99° |
| 2026-05-03 21:49 | 14.89928 | -69.22426 | 34986 ft | 489 kts | 99° |
| 2026-05-03 21:49 | 14.88730 | -69.15519 | 34986 ft | 488 kts | 99° |
| 2026-05-03 21:50 | 14.87530 | -69.08602 | 34986 ft | 488 kts | 99° |
| 2026-05-03 21:50 | 14.86346 | -69.01749 | 34977 ft | 487 kts | 99° |
| 2026-05-03 21:51 | 14.85156 | -68.94853 | 34981 ft | 487 kts | 99° |
| 2026-05-03 21:51 | 14.83962 | -68.87957 | 34979 ft | 488 kts | 99° |
| 2026-05-03 21:52 | 14.82770 | -68.81053 | 34984 ft | 488 kts | 98° |
| 2026-05-03 21:52 | 14.81574 | -68.74162 | 34989 ft | 488 kts | 99° |
| 2026-05-03 21:53 | 14.80365 | -68.67261 | 34996 ft | 488 kts | 99° |
| 2026-05-03 21:53 | 14.79168 | -68.60409 | 34996 ft | 488 kts | 98° |
| 2026-05-03 21:54 | 14.77964 | -68.53510 | 34998 ft | 488 kts | 99° |
| 2026-05-03 21:54 | 14.76753 | -68.46604 | 35002 ft | 488 kts | 99° |
| 2026-05-03 21:55 | 14.75547 | -68.39704 | 35005 ft | 488 kts | 98° |
| 2026-05-03 21:55 | 14.74345 | -68.32857 | 35006 ft | 487 kts | 99° |
| 2026-05-03 21:56 | 14.73131 | -68.25975 | 35003 ft | 487 kts | 99° |
| 2026-05-03 21:56 | 14.71912 | -68.19090 | 35005 ft | 487 kts | 99° |
| 2026-05-03 21:57 | 14.70690 | -68.12212 | 35002 ft | 487 kts | 99° |
| 2026-05-03 21:57 | 14.69467 | -68.05329 | 35001 ft | 487 kts | 99° |
| 2026-05-03 21:58 | 14.68246 | -67.98442 | 34999 ft | 487 kts | 99° |
| 2026-05-03 21:58 | 14.67042 | -67.91609 | 35000 ft | 487 kts | 99° |
| 2026-05-03 21:59 | 14.65823 | -67.84733 | 34997 ft | 487 kts | 99° |
| 2026-05-03 21:59 | 14.64593 | -67.77859 | 34996 ft | 487 kts | 99° |
| 2026-05-03 22:00 | 14.63368 | -67.70988 | 34995 ft | 487 kts | 99° |
| 2026-05-03 22:00 | 14.62140 | -67.64123 | 34997 ft | 487 kts | 99° |
| 2026-05-03 22:01 | 14.60908 | -67.57250 | 34997 ft | 487 kts | 99° |
| 2026-05-03 22:01 | 14.59685 | -67.50421 | 34999 ft | 487 kts | 99° |
| 2026-05-03 22:02 | 14.58449 | -67.43554 | 34997 ft | 487 kts | 99° |
| 2026-05-03 22:02 | 14.57200 | -67.36678 | 34998 ft | 488 kts | 99° |
| 2026-05-03 22:03 | 14.55965 | -67.29789 | 35002 ft | 488 kts | 99° |
| 2026-05-03 22:03 | 14.54794 | -67.22896 | 35007 ft | 488 kts | 98° |
| 2026-05-03 22:04 | 14.53680 | -67.15984 | 35004 ft | 488 kts | 98° |
| 2026-05-03 22:04 | 14.52569 | -67.09122 | 35001 ft | 488 kts | 98° |
| 2026-05-03 22:05 | 14.51425 | -67.02215 | 35004 ft | 489 kts | 98° |
| 2026-05-03 22:05 | 14.50272 | -66.95298 | 35008 ft | 489 kts | 98° |
| 2026-05-03 22:06 | 14.49107 | -66.88386 | 35014 ft | 489 kts | 98° |
| 2026-05-03 22:06 | 14.47952 | -66.81465 | 35011 ft | 489 kts | 98° |
| 2026-05-03 22:07 | 14.46795 | -66.74544 | 35009 ft | 489 kts | 98° |
| 2026-05-03 22:07 | 14.45636 | -66.67631 | 35008 ft | 489 kts | 98° |
| 2026-05-03 22:08 | 14.44261 | -66.60800 | 35008 ft | 490 kts | 102° |
| 2026-05-03 22:08 | 14.42611 | -66.53968 | 35007 ft | 490 kts | 103° |
| 2026-05-03 22:09 | 14.40943 | -66.47151 | 35008 ft | 491 kts | 102° |
| 2026-05-03 22:10 | 14.38563 | -66.36879 | 35004 ft | 491 kts | 102° |
| 2026-05-03 22:10 | 14.37005 | -66.30035 | 35008 ft | 491 kts | 102° |
| 2026-05-03 22:11 | 14.35426 | -66.23188 | 35014 ft | 491 kts | 102° |
| 2026-05-03 22:11 | 14.33830 | -66.16351 | 35012 ft | 491 kts | 102° |
| 2026-05-03 22:12 | 14.32238 | -66.09513 | 35009 ft | 490 kts | 102° |
| 2026-05-03 22:12 | 14.30665 | -66.02726 | 35007 ft | 490 kts | 102° |
| 2026-05-03 22:13 | 14.29073 | -65.95888 | 35003 ft | 490 kts | 102° |
| 2026-05-03 22:13 | 14.27482 | -65.89056 | 35004 ft | 490 kts | 102° |
| 2026-05-03 22:14 | 14.25883 | -65.82229 | 35004 ft | 490 kts | 102° |
| 2026-05-03 22:14 | 14.24284 | -65.75402 | 35003 ft | 490 kts | 102° |
| 2026-05-03 22:15 | 14.22688 | -65.68577 | 35001 ft | 490 kts | 102° |
| 2026-05-03 22:15 | 14.21103 | -65.61797 | 34999 ft | 490 kts | 102° |
| 2026-05-03 22:16 | 14.19498 | -65.54979 | 34997 ft | 490 kts | 102° |
| 2026-05-03 22:16 | 14.17891 | -65.48150 | 34995 ft | 490 kts | 102° |
| 2026-05-03 22:17 | 14.16284 | -65.41329 | 34999 ft | 490 kts | 102° |
| 2026-05-03 22:17 | 14.14668 | -65.34498 | 35000 ft | 490 kts | 102° |
| 2026-05-03 22:18 | 14.13071 | -65.27715 | 35012 ft | 491 kts | 102° |
| 2026-05-03 22:18 | 14.11455 | -65.20889 | 35012 ft | 491 kts | 102° |
| 2026-05-03 22:19 | 14.09832 | -65.14049 | 35012 ft | 491 kts | 102° |
| 2026-05-03 22:19 | 14.08220 | -65.07225 | 35013 ft | 491 kts | 102° |
| 2026-05-03 22:20 | 14.06599 | -65.00386 | 35013 ft | 491 kts | 102° |
| 2026-05-03 22:20 | 14.04979 | -64.93559 | 35016 ft | 491 kts | 102° |
| 2026-05-03 22:21 | 14.03365 | -64.86723 | 35008 ft | 491 kts | 102° |
| 2026-05-03 22:21 | 14.01759 | -64.79900 | 35005 ft | 491 kts | 102° |
| 2026-05-03 22:22 | 14.00172 | -64.73107 | 35008 ft | 491 kts | 102° |
| 2026-05-03 22:22 | 13.98557 | -64.66268 | 35013 ft | 492 kts | 102° |
| 2026-05-03 22:23 | 13.96940 | -64.59429 | 35013 ft | 492 kts | 102° |
| 2026-05-03 22:23 | 13.95313 | -64.52584 | 35015 ft | 492 kts | 102° |
| 2026-05-03 22:24 | 13.93694 | -64.45734 | 35016 ft | 492 kts | 102° |
| 2026-05-03 22:24 | 13.92069 | -64.38898 | 35015 ft | 492 kts | 102° |
| 2026-05-03 22:25 | 13.90450 | -64.32062 | 35021 ft | 491 kts | 102° |
| 2026-05-03 22:25 | 13.88840 | -64.25283 | 35018 ft | 491 kts | 102° |
| 2026-05-03 22:26 | 13.87201 | -64.18469 | 35018 ft | 491 kts | 102° |
| 2026-05-03 22:26 | 13.85550 | -64.11646 | 35018 ft | 491 kts | 102° |
| 2026-05-03 22:27 | 13.83902 | -64.04838 | 35020 ft | 491 kts | 102° |
| 2026-05-03 22:27 | 13.82256 | -63.98021 | 35025 ft | 491 kts | 102° |
| 2026-05-03 22:28 | 13.80619 | -63.91210 | 35025 ft | 491 kts | 102° |
| 2026-05-03 22:28 | 13.78986 | -63.84435 | 35025 ft | 491 kts | 102° |
| 2026-05-03 22:29 | 13.77338 | -63.77632 | 35016 ft | 491 kts | 102° |
| 2026-05-03 22:29 | 13.75676 | -63.70813 | 35010 ft | 492 kts | 102° |
| 2026-05-03 22:30 | 13.74022 | -63.63989 | 35007 ft | 492 kts | 102° |
| 2026-05-03 22:30 | 13.72364 | -63.57166 | 35009 ft | 492 kts | 102° |
| 2026-05-03 22:31 | 13.70701 | -63.50335 | 35015 ft | 492 kts | 102° |
| 2026-05-03 22:31 | 13.69040 | -63.43509 | 35014 ft | 492 kts | 102° |
| 2026-05-03 22:32 | 13.67382 | -63.36729 | 35014 ft | 492 kts | 102° |
| 2026-05-03 22:32 | 13.65711 | -63.29908 | 35009 ft | 492 kts | 102° |
| 2026-05-03 22:33 | 13.64043 | -63.23095 | 35008 ft | 491 kts | 102° |
| 2026-05-03 22:33 | 13.62383 | -63.16284 | 35006 ft | 491 kts | 102° |
| 2026-05-03 22:34 | 13.60718 | -63.09470 | 35011 ft | 491 kts | 102° |
| 2026-05-03 22:34 | 13.59044 | -63.02664 | 35014 ft | 491 kts | 102° |
| 2026-05-03 22:35 | 13.57376 | -62.95908 | 35011 ft | 491 kts | 102° |
| 2026-05-03 22:35 | 13.55696 | -62.89095 | 35014 ft | 491 kts | 102° |
| 2026-05-03 22:36 | 13.54019 | -62.82291 | 35021 ft | 491 kts | 103° |
| 2026-05-03 22:36 | 13.52336 | -62.75493 | 35018 ft | 490 kts | 103° |
| 2026-05-03 22:37 | 13.50664 | -62.68703 | 35014 ft | 490 kts | 102° |
| 2026-05-03 22:37 | 13.48998 | -62.61966 | 35013 ft | 490 kts | 103° |
| 2026-05-03 22:38 | 13.47318 | -62.55187 | 35011 ft | 490 kts | 103° |
| 2026-05-03 22:38 | 13.45628 | -62.48404 | 35013 ft | 490 kts | 103° |
| 2026-05-03 22:39 | 13.43942 | -62.41627 | 35013 ft | 490 kts | 103° |
| 2026-05-03 22:39 | 13.42263 | -62.34849 | 35015 ft | 490 kts | 103° |
| 2026-05-03 22:40 | 13.40586 | -62.28114 | 35016 ft | 490 kts | 103° |
| 2026-05-03 22:40 | 13.38884 | -62.21339 | 35018 ft | 490 kts | 103° |
| 2026-05-03 22:41 | 13.37177 | -62.14563 | 35017 ft | 490 kts | 103° |
| 2026-05-03 22:41 | 13.35472 | -62.07786 | 35020 ft | 490 kts | 103° |
| 2026-05-03 22:42 | 13.33768 | -62.00998 | 35021 ft | 490 kts | 103° |
| 2026-05-03 22:42 | 13.32069 | -61.94218 | 35020 ft | 490 kts | 103° |
| 2026-05-03 22:43 | 13.30379 | -61.87487 | 35021 ft | 490 kts | 103° |
| 2026-05-03 22:43 | 13.28675 | -61.80726 | 35025 ft | 489 kts | 103° |
| 2026-05-03 22:44 | 13.26959 | -61.73973 | 35027 ft | 489 kts | 103° |
| 2026-05-03 22:44 | 13.25247 | -61.67222 | 35020 ft | 488 kts | 103° |
| 2026-05-03 22:45 | 13.23556 | -61.60473 | 35018 ft | 488 kts | 103° |
| 2026-05-03 22:45 | 13.21875 | -61.53729 | 35014 ft | 488 kts | 103° |
| 2026-05-03 22:46 | 13.20200 | -61.47031 | 35010 ft | 488 kts | 103° |
| 2026-05-03 22:46 | 13.18508 | -61.40289 | 35010 ft | 488 kts | 103° |
| 2026-05-03 22:47 | 13.16810 | -61.33551 | 35017 ft | 488 kts | 103° |
| 2026-05-03 22:47 | 13.15109 | -61.26820 | 35007 ft | 488 kts | 103° |
| 2026-05-03 22:48 | 13.13953 | -61.19996 | 34997 ft | 484 kts | 90° |
| 2026-05-03 22:48 | 13.13724 | -61.13088 | 34998 ft | 485 kts | 90° |
| 2026-05-03 22:49 | 13.13483 | -61.06177 | 35003 ft | 485 kts | 90° |
| 2026-05-03 22:49 | 13.13240 | -60.99319 | 35008 ft | 484 kts | 90° |
| 2026-05-03 22:50 | 13.12992 | -60.92412 | 35014 ft | 484 kts | 90° |
| 2026-05-03 22:50 | 13.12744 | -60.85507 | 35016 ft | 484 kts | 90° |
| 2026-05-03 22:51 | 13.12502 | -60.78607 | 35016 ft | 484 kts | 90° |
| 2026-05-03 22:51 | 13.12253 | -60.71694 | 35021 ft | 485 kts | 90° |
| 2026-05-03 22:52 | 13.11998 | -60.64780 | 35024 ft | 485 kts | 90° |
| 2026-05-03 22:52 | 13.11749 | -60.57866 | 35022 ft | 485 kts | 90° |
| 2026-05-03 22:53 | 13.11494 | -60.50961 | 35019 ft | 485 kts | 90° |
| 2026-05-03 22:53 | 13.11237 | -60.44101 | 35022 ft | 484 kts | 90° |
| 2026-05-03 22:54 | 13.10986 | -60.37192 | 35020 ft | 485 kts | 90° |
| 2026-05-03 22:54 | 13.10732 | -60.30285 | 35018 ft | 485 kts | 90° |
| 2026-05-03 22:55 | 13.10469 | -60.23372 | 35017 ft | 485 kts | 90° |
| 2026-05-03 22:55 | 13.10199 | -60.16468 | 35020 ft | 485 kts | 90° |
| 2026-05-03 22:56 | 13.09934 | -60.09558 | 35017 ft | 485 kts | 90° |
| 2026-05-03 22:56 | 13.09676 | -60.02649 | 35013 ft | 485 kts | 90° |
| 2026-05-03 22:57 | 13.09398 | -59.95783 | 35012 ft | 485 kts | 90° |
| 2026-05-03 22:57 | 13.09114 | -59.88876 | 35009 ft | 485 kts | 90° |
| 2026-05-03 22:58 | 13.08840 | -59.81964 | 35008 ft | 485 kts | 90° |
| 2026-05-03 22:58 | 13.08575 | -59.75060 | 35008 ft | 485 kts | 90° |
| 2026-05-03 22:59 | 13.08357 | -59.69316 | 35006 ft | 485 kts | 90° |
| 2026-05-03 22:59 | 13.08079 | -59.62406 | 35007 ft | 485 kts | 90° |
| 2026-05-03 23:00 | 13.07616 | -59.54391 | 35004 ft | 486 kts | 98° |
| 2026-05-03 23:00 | 13.06780 | -59.51027 | 35002 ft | 488 kts | 109° |
| 2026-05-03 23:00 | 13.05356 | -59.47865 | 34998 ft | 490 kts | 120° |
| 2026-05-03 23:01 | 13.01797 | -59.43306 | 34993 ft | 491 kts | 137° |
| 2026-05-03 23:01 | 12.96684 | -59.38727 | 34990 ft | 492 kts | 139° |
| 2026-05-03 23:02 | 12.91518 | -59.34133 | 34987 ft | 492 kts | 139° |
| 2026-05-03 23:02 | 12.86344 | -59.29525 | 34988 ft | 493 kts | 139° |
| 2026-05-03 23:03 | 12.81159 | -59.24912 | 35000 ft | 494 kts | 139° |
| 2026-05-03 23:03 | 12.75976 | -59.20303 | 35004 ft | 494 kts | 139° |
| 2026-05-03 23:04 | 12.70827 | -59.15714 | 35005 ft | 494 kts | 139° |
| 2026-05-03 23:04 | 12.65645 | -59.11100 | 35018 ft | 494 kts | 139° |
| 2026-05-03 23:05 | 12.60452 | -59.06487 | 35015 ft | 494 kts | 139° |
| 2026-05-03 23:05 | 12.55256 | -59.01877 | 35028 ft | 494 kts | 139° |
| 2026-05-03 23:06 | 12.50060 | -58.97262 | 35029 ft | 494 kts | 139° |
| 2026-05-03 23:06 | 12.44860 | -58.92657 | 35028 ft | 494 kts | 139° |
| 2026-05-03 23:07 | 12.39693 | -58.88088 | 35026 ft | 494 kts | 139° |
| 2026-05-03 23:07 | 12.34492 | -58.83491 | 35024 ft | 494 kts | 139° |
| 2026-05-03 23:08 | 12.29298 | -58.78885 | 35029 ft | 494 kts | 139° |
| 2026-05-03 23:08 | 12.24102 | -58.74275 | 35028 ft | 494 kts | 139° |
| 2026-05-03 23:09 | 12.18904 | -58.69672 | 35015 ft | 495 kts | 139° |
| 2026-05-03 23:09 | 12.13693 | -58.65069 | 35016 ft | 495 kts | 139° |
| 2026-05-03 23:10 | 12.08508 | -58.60496 | 35016 ft | 495 kts | 139° |
| 2026-05-03 23:10 | 12.03298 | -58.55893 | 35021 ft | 496 kts | 139° |
| 2026-05-03 23:11 | 11.98077 | -58.51283 | 35026 ft | 496 kts | 139° |
| 2026-05-03 23:11 | 11.92857 | -58.46678 | 35028 ft | 496 kts | 139° |
| 2026-05-03 23:12 | 11.87632 | -58.42073 | 35029 ft | 496 kts | 139° |
| 2026-05-03 23:12 | 11.82442 | -58.37501 | 35020 ft | 496 kts | 140° |
| 2026-05-03 23:13 | 11.77218 | -58.32899 | 35017 ft | 496 kts | 140° |
| 2026-05-03 23:13 | 11.71989 | -58.28294 | 35018 ft | 497 kts | 140° |
| 2026-05-03 23:14 | 11.66756 | -58.23687 | 35019 ft | 497 kts | 140° |
| 2026-05-03 23:14 | 11.61528 | -58.19080 | 35017 ft | 497 kts | 140° |
| 2026-05-03 23:15 | 11.56291 | -58.14487 | 35019 ft | 497 kts | 140° |
| 2026-05-03 23:15 | 11.51053 | -58.09894 | 35009 ft | 497 kts | 140° |
| 2026-05-03 23:16 | 11.45851 | -58.05317 | 35004 ft | 497 kts | 140° |
| 2026-05-03 23:16 | 11.40604 | -58.00708 | 35008 ft | 498 kts | 140° |
| 2026-05-03 23:17 | 11.35356 | -57.96105 | 35006 ft | 498 kts | 140° |
| 2026-05-03 23:17 | 11.30107 | -57.91497 | 35007 ft | 498 kts | 140° |
| 2026-05-03 23:18 | 11.24858 | -57.86902 | 35005 ft | 498 kts | 140° |
| 2026-05-03 23:18 | 11.19607 | -57.82306 | 35003 ft | 498 kts | 140° |
| 2026-05-03 23:19 | 11.14359 | -57.77701 | 34995 ft | 498 kts | 140° |
| 2026-05-03 23:19 | 11.09132 | -57.73124 | 34996 ft | 499 kts | 140° |
| 2026-05-03 23:20 | 11.03856 | -57.68526 | 34999 ft | 499 kts | 140° |
| 2026-05-03 23:20 | 10.98578 | -57.63926 | 35007 ft | 500 kts | 140° |
| 2026-05-03 23:21 | 10.93302 | -57.59309 | 35009 ft | 500 kts | 140° |
| 2026-05-03 23:21 | 10.88024 | -57.54693 | 35011 ft | 500 kts | 140° |
| 2026-05-03 23:22 | 10.80105 | -57.47766 | 34998 ft | 501 kts | 141° |
| 2026-05-03 23:22 | 10.74811 | -57.43156 | 34996 ft | 501 kts | 141° |
| 2026-05-03 23:23 | 10.69539 | -57.38574 | 34999 ft | 502 kts | 141° |
| 2026-05-03 23:23 | 10.64236 | -57.33950 | 35011 ft | 502 kts | 141° |
| 2026-05-03 23:24 | 10.58931 | -57.29325 | 35011 ft | 502 kts | 141° |
| 2026-05-03 23:24 | 10.53627 | -57.24707 | 35009 ft | 502 kts | 141° |
| 2026-05-03 23:25 | 10.48356 | -57.20114 | 35014 ft | 502 kts | 141° |
| 2026-05-03 23:25 | 10.43054 | -57.15505 | 34994 ft | 503 kts | 141° |
| 2026-05-03 23:26 | 10.37732 | -57.10886 | 34994 ft | 503 kts | 141° |
| 2026-05-03 23:26 | 10.32408 | -57.06257 | 34997 ft | 504 kts | 141° |
| 2026-05-03 23:27 | 10.27089 | -57.01626 | 34998 ft | 504 kts | 141° |
| 2026-05-03 23:27 | 10.21763 | -56.97009 | 34996 ft | 504 kts | 141° |
| 2026-05-03 23:28 | 10.16462 | -56.92422 | 34999 ft | 504 kts | 141° |
| 2026-05-03 23:28 | 10.11128 | -56.87798 | 34988 ft | 504 kts | 142° |
| 2026-05-03 23:29 | 10.05801 | -56.83173 | 34987 ft | 504 kts | 142° |
| 2026-05-03 23:29 | 10.00466 | -56.78540 | 34985 ft | 505 kts | 142° |
| 2026-05-03 23:30 | 9.95127 | -56.73920 | 34988 ft | 505 kts | 142° |
| 2026-05-03 23:30 | 9.89813 | -56.69329 | 34989 ft | 505 kts | 142° |
| 2026-05-03 23:31 | 9.84466 | -56.64699 | 34988 ft | 505 kts | 142° |
| 2026-05-03 23:31 | 9.79117 | -56.60071 | 34993 ft | 506 kts | 142° |
| 2026-05-03 23:32 | 9.73760 | -56.55434 | 34985 ft | 507 kts | 142° |
| 2026-05-03 23:32 | 9.68396 | -56.50795 | 34987 ft | 508 kts | 142° |
| 2026-05-03 23:33 | 9.63015 | -56.46153 | 34990 ft | 508 kts | 142° |
| 2026-05-03 23:33 | 9.57668 | -56.41541 | 34991 ft | 508 kts | 142° |
| 2026-05-03 23:34 | 9.52290 | -56.36897 | 34994 ft | 508 kts | 142° |
| 2026-05-03 23:34 | 9.46907 | -56.32255 | 34996 ft | 508 kts | 142° |
| 2026-05-03 23:35 | 9.41522 | -56.27604 | 34991 ft | 508 kts | 143° |
| 2026-05-03 23:35 | 9.36140 | -56.22964 | 34998 ft | 508 kts | 143° |
| 2026-05-03 23:36 | 9.30795 | -56.18359 | 35001 ft | 508 kts | 143° |
| 2026-05-03 23:36 | 9.25420 | -56.13719 | 35003 ft | 508 kts | 143° |
| 2026-05-03 23:37 | 9.20034 | -56.09082 | 35006 ft | 508 kts | 143° |
| 2026-05-03 23:37 | 9.14650 | -56.04461 | 35006 ft | 508 kts | 143° |
| 2026-05-03 23:38 | 9.09267 | -55.99831 | 35004 ft | 508 kts | 143° |
| 2026-05-03 23:38 | 9.03576 | -55.95666 | 35007 ft | 505 kts | 148° |
| 2026-05-03 23:39 | 8.97853 | -55.91623 | 35008 ft | 505 kts | 148° |
| 2026-05-03 23:39 | 8.92099 | -55.87555 | 35008 ft | 505 kts | 148° |
| 2026-05-03 23:40 | 8.86345 | -55.83481 | 35006 ft | 505 kts | 148° |
| 2026-05-03 23:40 | 8.80589 | -55.79404 | 35007 ft | 505 kts | 148° |
| 2026-05-03 23:41 | 8.74837 | -55.75322 | 34994 ft | 505 kts | 148° |
| 2026-05-03 23:41 | 8.69089 | -55.71258 | 35004 ft | 504 kts | 148° |
| 2026-05-03 23:42 | 8.63372 | -55.67231 | 35003 ft | 504 kts | 148° |
| 2026-05-03 23:42 | 8.57625 | -55.63177 | 35010 ft | 504 kts | 148° |
| 2026-05-03 23:43 | 8.51883 | -55.59125 | 35011 ft | 503 kts | 148° |
| 2026-05-03 23:43 | 8.46146 | -55.55066 | 35014 ft | 503 kts | 148° |
| 2026-05-03 23:44 | 8.40405 | -55.51017 | 34998 ft | 504 kts | 148° |
| 2026-05-03 23:44 | 8.34657 | -55.46963 | 35002 ft | 504 kts | 148° |
| 2026-05-03 23:45 | 8.28949 | -55.42928 | 35002 ft | 504 kts | 148° |
| 2026-05-03 23:45 | 8.23203 | -55.38871 | 35005 ft | 504 kts | 148° |
| 2026-05-03 23:46 | 8.17448 | -55.34817 | 35004 ft | 504 kts | 148° |
| 2026-05-03 23:46 | 8.11691 | -55.30772 | 35007 ft | 504 kts | 148° |
| 2026-05-03 23:47 | 8.05947 | -55.26738 | 35012 ft | 503 kts | 148° |
| 2026-05-03 23:47 | 8.00197 | -55.22698 | 35016 ft | 502 kts | 148° |
| 2026-05-03 23:48 | 7.94472 | -55.18654 | 35011 ft | 502 kts | 148° |
| 2026-05-03 23:48 | 7.88788 | -55.14645 | 35010 ft | 502 kts | 148° |
| 2026-05-03 23:49 | 7.83066 | -55.10625 | 35006 ft | 501 kts | 148° |
| 2026-05-03 23:49 | 7.77343 | -55.06611 | 34998 ft | 501 kts | 148° |
| 2026-05-03 23:50 | 7.72587 | -55.03275 | 35006 ft | 501 kts | 148° |
| 2026-05-03 23:50 | 7.65915 | -54.98579 | 35012 ft | 500 kts | 148° |
| 2026-05-03 23:51 | 7.60217 | -54.94575 | 35010 ft | 499 kts | 148° |
| 2026-05-03 23:51 | 7.54508 | -54.90577 | 35008 ft | 499 kts | 148° |
| 2026-05-03 23:52 | 7.48805 | -54.86585 | 35007 ft | 499 kts | 148° |
| 2026-05-03 23:52 | 7.43150 | -54.82608 | 35005 ft | 499 kts | 148° |
| 2026-05-03 23:53 | 7.37461 | -54.78608 | 35005 ft | 499 kts | 148° |
| 2026-05-03 23:53 | 7.31768 | -54.74613 | 35007 ft | 498 kts | 148° |
| 2026-05-03 23:54 | 7.26079 | -54.70643 | 35006 ft | 498 kts | 148° |
| 2026-05-03 23:54 | 7.20389 | -54.66668 | 35005 ft | 497 kts | 148° |
| 2026-05-03 23:55 | 7.14754 | -54.62712 | 35005 ft | 497 kts | 148° |
| 2026-05-03 23:55 | 7.09071 | -54.58732 | 35005 ft | 497 kts | 148° |
| 2026-05-03 23:56 | 7.03396 | -54.54757 | 35006 ft | 497 kts | 148° |
| 2026-05-03 23:56 | 6.97733 | -54.50790 | 35005 ft | 496 kts | 148° |
| 2026-05-03 23:57 | 6.92058 | -54.46820 | 34997 ft | 496 kts | 148° |
| 2026-05-03 23:57 | 6.86432 | -54.42880 | 34999 ft | 496 kts | 148° |
| 2026-05-03 23:58 | 6.80758 | -54.38918 | 35002 ft | 496 kts | 148° |
| 2026-05-03 23:58 | 6.75091 | -54.34964 | 35002 ft | 495 kts | 148° |
| 2026-05-03 23:59 | 6.69431 | -54.31011 | 35004 ft | 495 kts | 148° |
| 2026-05-03 23:59 | 6.63782 | -54.27065 | 35003 ft | 494 kts | 148° |
| 2026-05-04 00:00 | 6.58168 | -54.23154 | 35000 ft | 494 kts | 148° |
| 2026-05-04 00:00 | 6.52524 | -54.19215 | 34999 ft | 494 kts | 148° |
| 2026-05-04 00:01 | 6.46880 | -54.15273 | 34996 ft | 494 kts | 148° |
| 2026-05-04 00:01 | 6.41247 | -54.11341 | 35006 ft | 493 kts | 148° |
| 2026-05-04 00:02 | 6.35628 | -54.07411 | 35010 ft | 491 kts | 148° |
| 2026-05-04 00:02 | 6.30033 | -54.03512 | 35011 ft | 488 kts | 148° |
| 2026-05-04 00:03 | 6.24492 | -53.99653 | 35009 ft | 487 kts | 147° |
| 2026-05-04 00:03 | 6.19050 | -53.95601 | 35006 ft | 487 kts | 144° |
| 2026-05-04 00:04 | 6.13721 | -53.91409 | 34934 ft | 487 kts | 144° |
| 2026-05-04 00:04 | 6.11064 | -53.89321 | 34703 ft | 484 kts | 144° |
| 2026-05-04 00:04 | 6.08403 | -53.87256 | 34477 ft | 482 kts | 144° |
| 2026-05-04 00:05 | 6.05744 | -53.85216 | 34247 ft | 481 kts | 145° |
| 2026-05-04 00:05 | 6.03079 | -53.83184 | 34028 ft | 481 kts | 145° |
| 2026-05-04 00:05 | 6.00414 | -53.81157 | 33786 ft | 480 kts | 145° |
| 2026-05-04 00:05 | 5.97783 | -53.79151 | 33530 ft | 481 kts | 145° |
| 2026-05-04 00:06 | 5.95120 | -53.77115 | 33277 ft | 482 kts | 145° |
| 2026-05-04 00:06 | 5.92456 | -53.75077 | 33029 ft | 482 kts | 145° |
| 2026-05-04 00:06 | 5.89783 | -53.73031 | 32784 ft | 483 kts | 145° |
| 2026-05-04 00:06 | 5.87116 | -53.70989 | 32524 ft | 483 kts | 145° |
| 2026-05-04 00:07 | 5.84441 | -53.68938 | 32278 ft | 484 kts | 145° |
| 2026-05-04 00:07 | 5.81765 | -53.66885 | 32055 ft | 485 kts | 145° |
| 2026-05-04 00:07 | 5.79079 | -53.64832 | 31814 ft | 485 kts | 145° |
| 2026-05-04 00:07 | 5.76390 | -53.62782 | 31568 ft | 486 kts | 145° |
| 2026-05-04 00:08 | 5.73697 | -53.60729 | 31338 ft | 487 kts | 145° |
| 2026-05-04 00:08 | 5.71003 | -53.58670 | 31103 ft | 487 kts | 145° |
| 2026-05-04 00:08 | 5.68341 | -53.56629 | 30640 ft | 488 kts | 145° |
| 2026-05-04 00:08 | 5.65636 | -53.54558 | 29377 ft | 489 kts | 144° |
| 2026-05-04 00:09 | 5.62950 | -53.52500 | 28075 ft | 482 kts | 144° |
| 2026-05-04 00:09 | 5.60308 | -53.50478 | 26904 ft | 475 kts | 144° |
| 2026-05-04 00:09 | 5.57665 | -53.48459 | 25727 ft | 481 kts | 143° |
| 2026-05-04 00:09 | 5.55020 | -53.46438 | 24572 ft | 472 kts | 142° |
| 2026-05-04 00:10 | 5.52438 | -53.44465 | 23492 ft | 459 kts | 141° |
| 2026-05-04 00:10 | 5.49933 | -53.42553 | 22269 ft | 448 kts | 141° |
| 2026-05-04 00:10 | 5.47457 | -53.40663 | 21397 ft | 446 kts | 141° |
| 2026-05-04 00:10 | 5.44995 | -53.38783 | 20580 ft | 445 kts | 141° |
| 2026-05-04 00:11 | 5.42532 | -53.36902 | 19753 ft | 445 kts | 140° |
| 2026-05-04 00:11 | 5.40076 | -53.35028 | 19076 ft | 441 kts | 140° |
| 2026-05-04 00:11 | 5.37713 | -53.33230 | 18918 ft | 409 kts | 140° |
| 2026-05-04 00:11 | 5.35529 | -53.31572 | 18840 ft | 379 kts | 140° |
| 2026-05-04 00:12 | 5.33529 | -53.30052 | 18754 ft | 353 kts | 139° |
| 2026-05-04 00:12 | 5.31634 | -53.28609 | 18599 ft | 332 kts | 139° |
| 2026-05-04 00:12 | 5.29853 | -53.27251 | 18462 ft | 314 kts | 139° |
| 2026-05-04 00:12 | 5.28139 | -53.25939 | 18322 ft | 306 kts | 138° |
| 2026-05-04 00:13 | 5.26470 | -53.24660 | 18177 ft | 298 kts | 138° |
| 2026-05-04 00:13 | 5.24841 | -53.23412 | 18040 ft | 291 kts | 138° |
| 2026-05-04 00:13 | 5.23257 | -53.22199 | 17919 ft | 283 kts | 138° |
| 2026-05-04 00:13 | 5.21704 | -53.21010 | 17802 ft | 279 kts | 138° |
| 2026-05-04 00:14 | 5.20166 | -53.19833 | 17670 ft | 278 kts | 138° |
| 2026-05-04 00:14 | 5.18633 | -53.18661 | 17546 ft | 277 kts | 138° |
| 2026-05-04 00:14 | 5.17098 | -53.17490 | 17425 ft | 277 kts | 137° |
| 2026-05-04 00:14 | 5.15730 | -53.16170 | 17039 ft | 276 kts | 124° |
| 2026-05-04 00:15 | 5.14637 | -53.14599 | 16685 ft | 275 kts | 117° |
| 2026-05-04 00:15 | 5.13667 | -53.12945 | 16335 ft | 276 kts | 115° |
| 2026-05-04 00:15 | 5.12717 | -53.11259 | 15981 ft | 278 kts | 116° |
| 2026-05-04 00:15 | 5.11750 | -53.09571 | 15626 ft | 281 kts | 116° |
| 2026-05-04 00:16 | 5.10751 | -53.07880 | 15271 ft | 283 kts | 117° |
| 2026-05-04 00:16 | 5.09721 | -53.06184 | 14908 ft | 286 kts | 117° |
| 2026-05-04 00:16 | 5.08667 | -53.04484 | 14536 ft | 287 kts | 118° |
| 2026-05-04 00:16 | 5.07615 | -53.02810 | 14182 ft | 280 kts | 118° |
| 2026-05-04 00:17 | 5.06576 | -53.01163 | 13820 ft | 281 kts | 118° |
| 2026-05-04 00:17 | 5.05527 | -52.99500 | 13435 ft | 283 kts | 118° |
| 2026-05-04 00:17 | 5.04471 | -52.97827 | 13070 ft | 284 kts | 118° |
| 2026-05-04 00:17 | 5.03410 | -52.96151 | 12709 ft | 285 kts | 118° |
| 2026-05-04 00:18 | 5.02349 | -52.94476 | 12341 ft | 285 kts | 118° |
| 2026-05-04 00:18 | 5.01300 | -52.92819 | 11978 ft | 285 kts | 119° |
| 2026-05-04 00:18 | 5.00236 | -52.91139 | 11613 ft | 285 kts | 119° |
| 2026-05-04 00:18 | 4.99175 | -52.89462 | 11242 ft | 285 kts | 119° |
| 2026-05-04 00:19 | 4.98114 | -52.87779 | 10889 ft | 285 kts | 119° |
| 2026-05-04 00:19 | 4.97055 | -52.86099 | 10517 ft | 285 kts | 119° |
| 2026-05-04 00:19 | 4.96001 | -52.84431 | 10159 ft | 278 kts | 120° |
| 2026-05-04 00:19 | 4.94984 | -52.82826 | 9809 ft | 268 kts | 120° |
| 2026-05-04 00:20 | 4.93991 | -52.81252 | 9445 ft | 267 kts | 119° |
| 2026-05-04 00:20 | 4.93011 | -52.79697 | 9103 ft | 258 kts | 119° |
| 2026-05-04 00:20 | 4.92071 | -52.78209 | 8784 ft | 247 kts | 119° |
| 2026-05-04 00:20 | 4.91170 | -52.76785 | 8473 ft | 239 kts | 119° |
| 2026-05-04 00:21 | 4.90282 | -52.75383 | 8174 ft | 237 kts | 119° |
| 2026-05-04 00:21 | 4.89413 | -52.74010 | 7874 ft | 235 kts | 119° |
| 2026-05-04 00:21 | 4.88542 | -52.72633 | 7578 ft | 233 kts | 119° |
| 2026-05-04 00:21 | 4.87678 | -52.71265 | 7283 ft | 231 kts | 119° |
| 2026-05-04 00:22 | 4.86821 | -52.69907 | 6988 ft | 229 kts | 119° |
| 2026-05-04 00:22 | 4.85970 | -52.68560 | 6701 ft | 228 kts | 119° |
| 2026-05-04 00:22 | 4.85128 | -52.67226 | 6412 ft | 226 kts | 119° |
| 2026-05-04 00:22 | 4.84292 | -52.65902 | 6120 ft | 224 kts | 118° |
| 2026-05-04 00:23 | 4.83462 | -52.64587 | 5823 ft | 222 kts | 118° |
| 2026-05-04 00:23 | 4.82641 | -52.63287 | 5526 ft | 217 kts | 118° |
| 2026-05-04 00:23 | 4.81850 | -52.62036 | 5264 ft | 209 kts | 118° |
| 2026-05-04 00:23 | 4.81082 | -52.60827 | 5009 ft | 202 kts | 118° |
| 2026-05-04 00:24 | 4.80344 | -52.59659 | 4753 ft | 195 kts | 118° |
| 2026-05-04 00:24 | 4.79633 | -52.58531 | 4499 ft | 192 kts | 118° |
| 2026-05-04 00:24 | 4.78921 | -52.57403 | 4254 ft | 192 kts | 118° |
| 2026-05-04 00:24 | 4.78205 | -52.56270 | 4008 ft | 193 kts | 117° |
| 2026-05-04 00:25 | 4.77501 | -52.55157 | 3783 ft | 183 kts | 117° |
| 2026-05-04 00:25 | 4.76843 | -52.54124 | 3540 ft | 170 kts | 117° |
| 2026-05-04 00:25 | 4.76229 | -52.53156 | 3326 ft | 160 kts | 117° |
| 2026-05-04 00:25 | 4.75650 | -52.52241 | 3128 ft | 151 kts | 116° |
| 2026-05-04 00:26 | 4.75299 | -52.51299 | 2896 ft | 140 kts | 91° |
| 2026-05-04 00:26 | 4.75437 | -52.50363 | 2698 ft | 136 kts | 67° |
| 2026-05-04 00:26 | 4.75832 | -52.49507 | 2537 ft | 136 kts | 66° |
| 2026-05-04 00:26 | 4.76226 | -52.48651 | 2349 ft | 136 kts | 66° |
| 2026-05-04 00:27 | 4.76621 | -52.47794 | 2174 ft | 134 kts | 66° |
| 2026-05-04 00:27 | 4.77007 | -52.46958 | 2001 ft | 133 kts | 66° |
| 2026-05-04 00:27 | 4.77395 | -52.46115 | 1828 ft | 133 kts | 66° |
| 2026-05-04 00:27 | 4.77784 | -52.45272 | 1661 ft | 134 kts | 66° |
| 2026-05-04 00:28 | 4.78174 | -52.44426 | 1496 ft | 134 kts | 65° |
| 2026-05-04 00:28 | 4.78566 | -52.43575 | 1314 ft | 135 kts | 66° |
| 2026-05-04 00:28 | 4.78962 | -52.42718 | 1137 ft | 136 kts | 66° |
| 2026-05-04 00:28 | 4.79360 | -52.41855 | 964 ft | 136 kts | 65° |
| 2026-05-04 00:29 | 4.79629 | -52.41269 | 856 ft | 141 kts | 66° |
| 2026-05-04 00:29 | 4.80044 | -52.40372 | 678 ft | 144 kts | 64° |
| 2026-05-04 00:29 | 4.80460 | -52.39461 | 486 ft | 144 kts | 66° |
| 2026-05-04 00:29 | 4.80874 | -52.38542 | 312 ft | 147 kts | 68° |
| 2026-05-04 00:30 | 4.81297 | -52.37636 | 105 ft | 144 kts | 66° |
| 2026-05-04 00:30 | 4.81702 | -52.36743 | 57 ft | 139 kts | 63° |
| 2026-05-04 00:30 | 4.82075 | -52.35951 | 30 ft | 109 kts | 67° |
| 2026-05-04 00:30 | 4.82322 | -52.35415 | 33 ft | 61 kts | 65° |
| 2026-05-04 00:31 | 4.82464 | -52.35112 | 32 ft | 40 kts | 64° |
| 2026-05-04 00:31 | 4.82556 | -52.34910 | 30 ft | 23 kts | 71° |
| 2026-05-04 00:31 | 4.82557 | -52.34796 | 33 ft | 9 kts | 30° |
| 2026-05-04 00:31 | 4.82572 | -52.34792 | 33 ft | 3 kts | 5° |
| 2026-05-04 00:32 | 4.82581 | -52.34854 | 30 ft | 12 kts | 251° |
| 2026-05-04 00:32 | 4.82549 | -52.34927 | 32 ft | 11 kts | 245° |
| 2026-05-04 00:32 | 4.82515 | -52.35000 | 31 ft | 15 kts | 244° |
| 2026-05-04 00:32 | 4.82467 | -52.35103 | 32 ft | 15 kts | 245° |
| 2026-05-04 00:33 | 4.82425 | -52.35193 | 31 ft | 13 kts | 245° |
| 2026-05-04 00:33 | 4.82355 | -52.35341 | 31 ft | 11 kts | 244° |
| 2026-05-04 00:33 | 4.82323 | -52.35408 | 33 ft | 13 kts | 245° |
| 2026-05-04 00:34 | 4.82266 | -52.35533 | 34 ft | 21 kts | 245° |
| 2026-05-04 00:34 | 4.82202 | -52.35671 | 32 ft | 23 kts | 245° |
| 2026-05-04 00:34 | 4.82133 | -52.35817 | 31 ft | 25 kts | 245° |
| 2026-05-04 00:34 | 4.82097 | -52.35903 | 31 ft | 9 kts | 263° |
| 2026-05-04 00:35 | 4.82115 | -52.35959 | 30 ft | 8 kts | 302° |
| 2026-05-04 00:35 | 4.82146 | -52.36004 | 30 ft | 7 kts | 304° |
| 2026-05-04 00:35 | 4.82182 | -52.36062 | 30 ft | 10 kts | 286° |
| 2026-05-04 00:35 | 4.82166 | -52.36129 | 30 ft | 10 kts | 245° |
| 2026-05-04 00:36 | 4.82153 | -52.36189 | 29 ft | 8 kts | 284° |
| 2026-05-04 00:36 | 4.82157 | -52.36238 | 29 ft | 7 kts | 240° |
| 2026-05-04 00:36 | 4.82139 | -52.36278 | 29 ft | 4 kts | 278° |
| 2026-05-04 00:36 | 4.82154 | -52.36289 | 29 ft | 2 kts | 314° |
| 2026-05-04 00:37 | 4.82164 | -52.36296 | 29 ft | 1 kts | 326° |
| 2026-05-04 00:37 | 4.82168 | -52.36297 | 29 ft | 1 kts | 333° |
| 2026-05-04 00:37 | 4.82177 | -52.36302 | 29 ft | 1 kts | 333° |
| 2026-05-04 00:37 | 4.82181 | -52.36304 | 29 ft | 0 kts | 335° |
| 2026-05-04 00:56 | 4.82180 | -52.36304 | 29 ft | 0 kts | 335° |
| 2026-05-04 01:01 | 4.82180 | -52.36303 | 29 ft | 0 kts | 335° |